createdAt,value
2023-02-09T00:00:07.428Z,-7.89
2023-02-09T00:02:33.921Z,-7.84
2023-02-09T00:05:00.346Z,-7.79
2023-02-09T00:07:26.802Z,-7.74
2023-02-09T00:09:53.184Z,-7.83
2023-02-09T00:12:38.368Z,-7.59
2023-02-09T00:15:06.398Z,-7.42
2023-02-09T00:17:35.751Z,-7.54
2023-02-09T00:20:04.983Z,-7.67
2023-02-09T00:22:31.742Z,-7.37
2023-02-09T00:24:58.233Z,-7.51
2023-02-09T00:27:24.645Z,-7.88
2023-02-09T00:29:51.272Z,-7.78
2023-02-09T00:32:39.519Z,-7.76
2023-02-09T00:35:07.822Z,-8.06
2023-02-09T00:37:35.172Z,-8.33
2023-02-09T00:40:01.592Z,-8.42
2023-02-09T00:42:28.011Z,-8.27
2023-02-09T00:44:54.431Z,-8.58
2023-02-09T00:47:20.831Z,-8.72
2023-02-09T00:49:47.218Z,-8.55
2023-02-09T00:52:13.615Z,-8.43
2023-02-09T00:54:40.030Z,-8.64
2023-02-09T00:57:06.445Z,-8.54
2023-02-09T00:59:34.934Z,-8.66
2023-02-09T01:02:02.414Z,-8.48
2023-02-09T01:04:28.941Z,-8.91
2023-02-09T01:06:55.506Z,-8.77
2023-02-09T01:09:22.064Z,-9.01
2023-02-09T01:11:48.497Z,-8.86
2023-02-09T01:14:15.048Z,-8.89
2023-02-09T01:16:41.541Z,-9.08
2023-02-09T01:19:08.018Z,-8.94
2023-02-09T01:21:34.443Z,-9.23
2023-02-09T01:24:00.894Z,-8.85
2023-02-09T01:26:27.946Z,-8.77
2023-02-09T01:28:54.929Z,-8.72
2023-02-09T01:31:27.945Z,-8.71
2023-02-09T01:33:56.599Z,-9.11
2023-02-09T01:36:23.483Z,-9.32
2023-02-09T01:38:50.632Z,-8.92
2023-02-09T01:41:18.011Z,-9.00
2023-02-09T01:44:01.158Z,-8.95
2023-02-09T01:46:30.408Z,-8.99
2023-02-09T01:49:03.840Z,-9.23
2023-02-09T01:51:34.850Z,-9.09
2023-02-09T01:54:06.425Z,-9.07
2023-02-09T01:56:33.308Z,-9.27
2023-02-09T01:58:59.878Z,-9.20
2023-02-09T02:01:26.740Z,-9.04
2023-02-09T02:03:54.062Z,-8.91
2023-02-09T02:06:20.814Z,-9.18
2023-02-09T02:08:55.369Z,-9.08
2023-02-09T02:11:23.991Z,-9.28
2023-02-09T02:13:50.646Z,-9.35
2023-02-09T02:16:32.546Z,-9.02
2023-02-09T02:19:17.128Z,-9.08
2023-02-09T02:22:09.230Z,-9.11
2023-02-09T02:25:20.198Z,-9.17
2023-02-09T02:27:55.563Z,-9.26
2023-02-09T02:30:43.453Z,-9.24
2023-02-09T02:33:28.274Z,-9.30
2023-02-09T02:36:08.192Z,-9.32
2023-02-09T02:38:43.474Z,-9.53
2023-02-09T02:41:19.634Z,-9.30
2023-02-09T02:44:05.454Z,-9.34
2023-02-09T02:46:54.022Z,-9.66
2023-02-09T02:49:44.890Z,-9.36
2023-02-09T02:52:11.932Z,-9.36
2023-02-09T02:54:47.729Z,-9.91
2023-02-09T02:57:16.945Z,-9.53
2023-02-09T02:59:53.486Z,-9.51
2023-02-09T03:02:23.480Z,-9.63
2023-02-09T03:04:55.046Z,-9.68
2023-02-09T03:07:21.500Z,-9.83
2023-02-09T03:09:52.293Z,-9.85
2023-02-09T03:12:34.301Z,-9.54
2023-02-09T03:15:48.374Z,-9.77
2023-02-09T03:18:47.834Z,-9.69
2023-02-09T03:21:28.884Z,-9.79
2023-02-09T03:24:20.401Z,-9.52
2023-02-09T03:26:56.027Z,-9.80
2023-02-09T03:29:25.113Z,-9.80
2023-02-09T03:31:52.139Z,-9.60
2023-02-09T03:34:18.842Z,-9.86
2023-02-09T03:36:51.781Z,-9.62
2023-02-09T03:39:18.294Z,-9.67
2023-02-09T03:41:44.713Z,-9.68
2023-02-09T03:44:29.154Z,-9.84
2023-02-09T03:47:03.220Z,-9.98
2023-02-09T03:49:33.597Z,-9.54
2023-02-09T03:52:01.257Z,-9.59
2023-02-09T03:54:29.577Z,-9.60
2023-02-09T03:56:57.039Z,-9.55
2023-02-09T03:59:25.206Z,-9.54
2023-02-09T04:01:53.680Z,-9.81
2023-02-09T04:04:20.796Z,-10.15
2023-02-09T04:06:47.587Z,-9.86
2023-02-09T04:09:14.439Z,-9.61
2023-02-09T04:11:40.850Z,-10.02
2023-02-09T04:14:09.054Z,-10.07
2023-02-09T04:16:36.767Z,-9.65
2023-02-09T04:19:04.687Z,-9.79
2023-02-09T04:21:31.929Z,-9.75
2023-02-09T04:23:58.393Z,-9.74
2023-02-09T04:26:24.848Z,-10.04
2023-02-09T04:28:51.317Z,-9.99
2023-02-09T04:31:18.563Z,-10.25
2023-02-09T04:33:45.061Z,-9.61
2023-02-09T04:36:12.194Z,-10.04
2023-02-09T04:38:38.741Z,-9.99
2023-02-09T04:41:05.570Z,-9.81
2023-02-09T04:43:33.256Z,-10.00
2023-02-09T04:46:00.632Z,-9.83
2023-02-09T04:48:29.146Z,-9.80
2023-02-09T04:50:55.924Z,-10.11
2023-02-09T04:53:24.198Z,-9.92
2023-02-09T04:55:51.790Z,-9.78
2023-02-09T04:58:38.458Z,-10.07
2023-02-09T05:01:05.405Z,-10.06
2023-02-09T05:03:31.927Z,-9.91
2023-02-09T05:06:03.330Z,-9.70
2023-02-09T05:08:30.531Z,-9.71
2023-02-09T05:10:57.534Z,-9.68
2023-02-09T05:13:25.508Z,-9.75
2023-02-09T05:15:53.791Z,-9.78
2023-02-09T05:18:20.422Z,-10.05
2023-02-09T05:20:48.309Z,-9.84
2023-02-09T05:23:15.108Z,-9.92
2023-02-09T05:25:41.947Z,-10.18
2023-02-09T05:28:08.541Z,-9.64
2023-02-09T05:30:35.136Z,-9.82
2023-02-09T05:33:03.202Z,-9.88
2023-02-09T05:35:29.698Z,-9.94
2023-02-09T05:37:56.137Z,-10.31
2023-02-09T05:40:22.655Z,-10.25
2023-02-09T05:42:49.086Z,-10.11
2023-02-09T05:45:15.554Z,-10.18
2023-02-09T05:47:42.001Z,-10.09
2023-02-09T05:50:08.619Z,-9.95
2023-02-09T05:52:35.108Z,-10.17
2023-02-09T05:55:01.597Z,-10.16
2023-02-09T05:57:28.023Z,-10.06
2023-02-09T05:59:54.481Z,-10.22
2023-02-09T06:02:21.067Z,-10.25
2023-02-09T06:04:49.583Z,-10.15
2023-02-09T06:07:16.090Z,-10.17
2023-02-09T06:09:48.703Z,-10.14
2023-02-09T06:12:15.091Z,-10.00
2023-02-09T06:14:41.619Z,-10.24
2023-02-09T06:17:07.982Z,-10.15
2023-02-09T06:19:34.359Z,-10.27
2023-02-09T06:22:00.942Z,-10.11
2023-02-09T06:24:27.557Z,-10.25
2023-02-09T06:26:54.019Z,-10.01
2023-02-09T06:29:20.447Z,-10.26
2023-02-09T06:31:46.980Z,-10.12
2023-02-09T06:34:13.555Z,-10.01
2023-02-09T06:36:39.997Z,-10.33
2023-02-09T06:39:08.283Z,-9.81
2023-02-09T06:41:34.817Z,-10.26
2023-02-09T06:44:01.223Z,-9.95
2023-02-09T06:46:28.607Z,-10.15
2023-02-09T06:48:55.354Z,-10.10
2023-02-09T06:51:21.980Z,-10.00
2023-02-09T06:53:48.590Z,-10.06
2023-02-09T06:56:15.290Z,-10.03
2023-02-09T06:58:41.964Z,-10.03
2023-02-09T07:01:10.998Z,-9.51
2023-02-09T07:03:37.838Z,-9.54
2023-02-09T07:06:12.826Z,-9.84
2023-02-09T07:08:40.728Z,-9.72
2023-02-09T07:11:11.193Z,-9.50
2023-02-09T07:13:37.985Z,-9.33
2023-02-09T07:16:06.695Z,-9.28
2023-02-09T07:18:34.281Z,-9.47
2023-02-09T07:21:03.632Z,-9.35
2023-02-09T07:23:30.701Z,-9.14
2023-02-09T07:26:01.087Z,-9.14
2023-02-09T07:28:27.558Z,-9.34
2023-02-09T07:30:54.114Z,-9.22
2023-02-09T07:33:22.113Z,-8.90
2023-02-09T07:35:48.866Z,-9.17
2023-02-09T07:38:15.685Z,-8.74
2023-02-09T07:40:46.407Z,-8.60
2023-02-09T07:43:18.032Z,-9.00
2023-02-09T07:45:44.671Z,-8.31
2023-02-09T07:48:11.690Z,-8.17
2023-02-09T07:50:38.394Z,-8.21
2023-02-09T07:53:04.824Z,-8.07
2023-02-09T07:55:31.261Z,-7.94
2023-02-09T07:57:57.632Z,-7.98
2023-02-09T08:00:25.501Z,-7.87
2023-02-09T08:02:52.499Z,-7.69
2023-02-09T08:05:31.634Z,-7.82
2023-02-09T08:07:58.591Z,-7.87
2023-02-09T08:10:26.139Z,-7.69
2023-02-09T08:13:01.982Z,-7.69
2023-02-09T08:15:31.619Z,-7.27
2023-02-09T08:18:02.294Z,-7.23
2023-02-09T08:20:31.764Z,-7.20
2023-02-09T08:23:04.866Z,-6.78
2023-02-09T08:25:31.931Z,-6.84
2023-02-09T08:27:59.425Z,-6.74
2023-02-09T08:30:25.926Z,-6.65
2023-02-09T08:32:52.314Z,-6.67
2023-02-09T08:35:18.772Z,-6.42
2023-02-09T08:37:45.158Z,-6.36
2023-02-09T08:40:12.443Z,-6.16
2023-02-09T08:42:38.838Z,-6.07
2023-02-09T08:45:06.147Z,-6.12
2023-02-09T08:47:32.572Z,-5.89
2023-02-09T08:49:59.334Z,-5.82
2023-02-09T08:52:26.184Z,-5.76
2023-02-09T08:54:52.579Z,-5.65
2023-02-09T08:57:19.082Z,-5.68
2023-02-09T08:59:45.518Z,-5.30
2023-02-09T09:02:11.922Z,-5.07
2023-02-09T09:04:38.300Z,-5.20
2023-02-09T09:07:04.677Z,-4.89
2023-02-09T09:09:31.048Z,-4.56
2023-02-09T09:11:57.437Z,-4.43
2023-02-09T09:14:26.457Z,-4.32
2023-02-09T09:16:53.367Z,-4.39
2023-02-09T09:19:19.998Z,-4.21
2023-02-09T09:21:46.392Z,-3.99
2023-02-09T09:24:12.789Z,-3.96
2023-02-09T09:26:39.261Z,-3.84
2023-02-09T09:29:05.695Z,-3.76
2023-02-09T09:31:33.488Z,-3.50
2023-02-09T09:34:00.131Z,-3.22
2023-02-09T09:36:26.523Z,-3.21
2023-02-09T09:38:52.930Z,-3.16
2023-02-09T09:41:28.296Z,-2.65
2023-02-09T09:43:55.254Z,-2.69
2023-02-09T09:46:32.826Z,-2.38
2023-02-09T09:48:59.878Z,-2.65
2023-02-09T09:52:04.782Z,-2.03
2023-02-09T09:54:34.248Z,-2.05
2023-02-09T09:57:01.962Z,-2.22
2023-02-09T09:59:34.773Z,-1.61
2023-02-09T10:02:18.987Z,-1.24
2023-02-09T10:04:45.598Z,-1.18
2023-02-09T10:07:19.608Z,-0.82
2023-02-09T10:09:53.759Z,-0.61
2023-02-09T10:12:37.748Z,-0.28
2023-02-09T10:15:36.600Z,-0.32
2023-02-09T10:18:10.436Z,0.01
2023-02-09T10:20:50.934Z,0.34
2023-02-09T10:23:19.467Z,0.55
2023-02-09T10:25:54.915Z,0.55
2023-02-09T10:28:31.589Z,0.80
2023-02-09T10:31:02.289Z,1.34
2023-02-09T10:33:37.010Z,1.51
2023-02-09T10:36:08.628Z,1.42
2023-02-09T10:38:39.972Z,1.52
2023-02-09T10:41:10.239Z,1.86
2023-02-09T10:43:36.807Z,1.52
2023-02-09T10:46:11.931Z,1.87
2023-02-09T10:48:44.342Z,1.83
2023-02-09T10:51:29.214Z,2.07
2023-02-09T10:53:55.647Z,2.30
2023-02-09T10:56:25.164Z,2.24
2023-02-09T10:59:00.351Z,2.51
2023-02-09T11:01:31.070Z,2.50
2023-02-09T11:04:02.089Z,2.48
2023-02-09T11:06:41.023Z,2.50
2023-02-09T11:09:14.330Z,2.73
2023-02-09T11:11:43.077Z,2.38
2023-02-09T11:14:15.641Z,2.56
2023-02-09T11:17:06.433Z,2.77
2023-02-09T11:19:46.135Z,2.72
2023-02-09T11:22:16.276Z,2.64
2023-02-09T11:25:27.537Z,2.89
2023-02-09T11:27:56.942Z,3.08
2023-02-09T11:30:54.171Z,3.07
2023-02-09T11:33:23.452Z,3.28
2023-02-09T11:36:21.377Z,2.91
2023-02-09T11:39:08.010Z,3.30
2023-02-09T11:42:03.215Z,3.16
2023-02-09T11:44:41.462Z,2.98
2023-02-09T11:47:15.393Z,2.95
2023-02-09T11:49:50.887Z,2.96
2023-02-09T11:52:30.554Z,3.19
2023-02-09T11:55:02.568Z,3.53
2023-02-09T11:57:50.548Z,3.21
2023-02-09T12:00:24.356Z,3.57
2023-02-09T12:02:53.767Z,3.48
2023-02-09T12:05:21.776Z,3.80
2023-02-09T12:08:19.059Z,4.02
2023-02-09T12:11:19.567Z,4.13
2023-02-09T12:14:03.624Z,3.90
2023-02-09T12:16:42.673Z,3.30
2023-02-09T12:19:26.342Z,3.83
2023-02-09T12:21:52.808Z,3.81
2023-02-09T12:24:40.180Z,3.94
2023-02-09T12:27:25.297Z,3.96
2023-02-09T12:29:51.822Z,4.13
2023-02-09T12:32:42.274Z,4.05
2023-02-09T12:35:28.071Z,4.06
2023-02-09T12:38:51.608Z,3.82
2023-02-09T12:41:19.978Z,3.99
2023-02-09T12:43:46.810Z,4.08
2023-02-09T12:46:18.023Z,3.76
2023-02-09T12:48:51.471Z,3.65
2023-02-09T12:51:39.771Z,3.89
2023-02-09T12:54:33.926Z,4.26
2023-02-09T12:57:15.654Z,3.76
2023-02-09T13:00:04.911Z,3.71
2023-02-09T13:02:49.792Z,3.95
2023-02-09T13:05:22.292Z,4.17
2023-02-09T13:08:03.828Z,3.99
2023-02-09T13:10:55.511Z,4.12
2023-02-09T13:13:35.971Z,4.08
2023-02-09T13:16:11.646Z,4.33
2023-02-09T13:18:54.178Z,4.59
2023-02-09T13:21:29.729Z,4.45
2023-02-09T13:24:52.054Z,4.57
2023-02-09T13:27:23.565Z,4.45
2023-02-09T13:29:55.347Z,4.60
2023-02-09T13:32:29.227Z,4.76
2023-02-09T13:35:22.870Z,4.53
2023-02-09T13:37:54.223Z,4.74
2023-02-09T13:40:32.977Z,3.88
2023-02-09T13:43:11.526Z,4.48
2023-02-09T13:45:53.383Z,4.46
2023-02-09T13:48:32.639Z,4.05
2023-02-09T13:51:03.250Z,4.20
2023-02-09T13:53:31.919Z,4.14
2023-02-09T13:56:00.512Z,4.38
2023-02-09T13:58:35.273Z,4.08
2023-02-09T14:01:09.093Z,4.33
2023-02-09T14:03:58.895Z,3.66
2023-02-09T14:06:33.379Z,4.55
2023-02-09T14:09:03.109Z,4.33
2023-02-09T14:11:42.276Z,4.36
2023-02-09T14:14:17.896Z,4.33
2023-02-09T14:16:53.574Z,4.36
2023-02-09T14:19:31.975Z,4.34
2023-02-09T14:21:58.576Z,4.23
2023-02-09T14:24:27.491Z,4.34
2023-02-09T14:26:53.951Z,4.15
2023-02-09T14:29:29.503Z,4.50
2023-02-09T14:32:32.011Z,4.09
2023-02-09T14:35:19.840Z,3.97
2023-02-09T14:37:47.541Z,3.79
2023-02-09T14:40:21.498Z,3.85
2023-02-09T14:43:21.993Z,3.76
2023-02-09T14:45:58.678Z,3.71
2023-02-09T14:48:28.923Z,3.73
2023-02-09T14:50:57.419Z,4.01
2023-02-09T14:53:28.173Z,3.85
2023-02-09T14:55:55.863Z,3.94
2023-02-09T14:58:27.081Z,4.14
2023-02-09T15:00:56.720Z,3.76
2023-02-09T15:03:23.589Z,3.70
2023-02-09T15:05:54.441Z,4.05
2023-02-09T15:08:24.064Z,4.32
2023-02-09T15:10:57.453Z,4.00
2023-02-09T15:13:24.369Z,3.95
2023-02-09T15:15:50.797Z,4.19
2023-02-09T15:18:26.032Z,3.71
2023-02-09T15:20:52.585Z,3.77
2023-02-09T15:23:20.077Z,3.72
2023-02-09T15:25:47.952Z,3.88
2023-02-09T15:28:24.596Z,4.18
2023-02-09T15:30:51.158Z,4.12
2023-02-09T15:33:17.602Z,3.88
2023-02-09T15:35:44.414Z,3.80
2023-02-09T15:38:14.865Z,3.79
2023-02-09T15:41:06.115Z,3.70
2023-02-09T15:43:51.560Z,3.78
2023-02-09T15:46:39.302Z,3.39
2023-02-09T15:49:05.807Z,3.37
2023-02-09T15:51:36.944Z,3.25
2023-02-09T15:54:07.785Z,3.14
2023-02-09T15:56:36.588Z,2.91
2023-02-09T15:59:05.394Z,2.80
2023-02-09T16:01:34.411Z,2.71
2023-02-09T16:04:13.392Z,2.54
2023-02-09T16:06:44.097Z,2.18
2023-02-09T16:09:17.697Z,2.32
2023-02-09T16:11:44.305Z,2.05
2023-02-09T16:14:17.255Z,2.02
2023-02-09T16:16:45.696Z,1.55
2023-02-09T16:19:13.237Z,1.35
2023-02-09T16:21:42.550Z,1.12
2023-02-09T16:24:21.300Z,0.87
2023-02-09T16:26:48.050Z,0.88
2023-02-09T16:29:15.347Z,0.66
2023-02-09T16:31:41.776Z,0.75
2023-02-09T16:34:09.385Z,0.40
2023-02-09T16:36:35.956Z,-0.12
2023-02-09T16:39:03.533Z,-0.04
2023-02-09T16:41:49.681Z,-0.20
2023-02-09T16:44:26.060Z,-0.16
2023-02-09T16:46:55.430Z,-0.02
2023-02-09T16:49:34.630Z,-0.71
2023-02-09T16:52:04.804Z,-0.67
2023-02-09T16:54:37.385Z,-1.09
2023-02-09T16:57:04.386Z,-0.93
2023-02-09T16:59:30.784Z,-1.28
2023-02-09T17:01:59.794Z,-1.23
2023-02-09T17:04:26.338Z,-1.27
2023-02-09T17:06:53.002Z,-1.79
2023-02-09T17:09:19.437Z,-1.62
2023-02-09T17:11:47.974Z,-1.47
2023-02-09T17:14:14.399Z,-1.47
2023-02-09T17:16:49.422Z,-1.85
2023-02-09T17:19:18.148Z,-1.96
2023-02-09T17:21:44.627Z,-1.95
2023-02-09T17:24:16.223Z,-2.00
2023-02-09T17:26:43.890Z,-2.12
2023-02-09T17:29:11.082Z,-2.49
2023-02-09T17:31:52.022Z,-2.45
2023-02-09T17:34:26.898Z,-2.39
2023-02-09T17:36:53.571Z,-2.47
2023-02-09T17:39:20.096Z,-2.42
2023-02-09T17:41:48.537Z,-2.22
2023-02-09T17:44:45.996Z,-2.62
2023-02-09T17:47:07.124Z,-2.44
2023-02-09T17:49:34.906Z,-2.60
2023-02-09T17:52:01.327Z,-2.84
2023-02-09T17:54:27.982Z,-2.63
2023-02-09T17:56:54.505Z,-2.75
2023-02-09T17:59:21.287Z,-2.96
2023-02-09T18:01:54.986Z,-2.79
2023-02-09T18:04:26.666Z,-2.80
2023-02-09T18:06:53.215Z,-2.90
2023-02-09T18:09:20.022Z,-2.76
2023-02-09T18:11:46.464Z,-2.76
2023-02-09T18:14:17.325Z,-3.25
2023-02-09T18:16:47.046Z,-2.82
2023-02-09T18:19:28.830Z,-3.23
2023-02-09T18:22:03.754Z,-2.92
2023-02-09T18:24:34.287Z,-3.27
2023-02-09T18:27:05.132Z,-3.22
2023-02-09T18:29:33.598Z,-3.26
2023-02-09T18:32:02.170Z,-3.06
2023-02-09T18:34:29.116Z,-3.44
2023-02-09T18:36:55.599Z,-3.36
2023-02-09T18:39:22.045Z,-3.48
2023-02-09T18:41:54.022Z,-3.41
2023-02-09T18:44:24.313Z,-3.56
2023-02-09T18:46:50.766Z,-3.67
2023-02-09T18:49:18.154Z,-3.69
2023-02-09T18:51:44.625Z,-3.74
2023-02-09T18:54:11.291Z,-3.58
2023-02-09T18:56:39.752Z,-3.76
2023-02-09T18:59:06.259Z,-3.66
2023-02-09T19:01:36.619Z,-3.78
2023-02-09T19:04:03.093Z,-3.62
2023-02-09T19:06:29.529Z,-3.54
2023-02-09T19:08:55.961Z,-3.66
2023-02-09T19:11:23.358Z,-3.88
2023-02-09T19:14:08.460Z,-3.72
2023-02-09T19:16:40.915Z,-3.90
2023-02-09T19:19:13.273Z,-4.15
2023-02-09T19:21:39.665Z,-4.16
2023-02-09T19:24:06.312Z,-3.92
2023-02-09T19:26:32.769Z,-3.93
2023-02-09T19:28:59.155Z,-3.83
2023-02-09T19:31:29.666Z,-3.92
2023-02-09T19:33:57.157Z,-4.16
2023-02-09T19:36:24.430Z,-4.16
2023-02-09T19:38:50.911Z,-4.25
2023-02-09T19:41:17.391Z,-4.30
2023-02-09T19:43:43.947Z,-4.26
2023-02-09T19:46:10.558Z,-4.59
2023-02-09T19:48:41.088Z,-4.53
2023-02-09T19:51:08.349Z,-4.45
2023-02-09T19:53:35.056Z,-4.60
2023-02-09T19:56:01.598Z,-4.79
2023-02-09T19:58:28.107Z,-4.67
2023-02-09T20:00:55.972Z,-4.59
2023-02-09T20:03:24.752Z,-4.83
2023-02-09T20:05:51.467Z,-4.64
2023-02-09T20:08:20.072Z,-4.58
2023-02-09T20:10:47.304Z,-4.70
2023-02-09T20:13:15.351Z,-4.59
2023-02-09T20:15:44.478Z,-5.01
2023-02-09T20:18:16.029Z,-4.97
2023-02-09T20:20:44.275Z,-5.20
2023-02-09T20:23:10.918Z,-4.94
2023-02-09T20:25:40.778Z,-4.80
2023-02-09T20:28:13.521Z,-4.82
2023-02-09T20:30:42.420Z,-4.86
2023-02-09T20:33:10.184Z,-5.10
2023-02-09T20:35:41.060Z,-5.01
2023-02-09T20:38:09.052Z,-5.28
2023-02-09T20:40:35.832Z,-5.04
2023-02-09T20:43:21.428Z,-5.30
2023-02-09T20:46:06.483Z,-5.23
2023-02-09T20:48:33.117Z,-5.48
2023-02-09T20:50:59.646Z,-5.36
2023-02-09T20:53:26.265Z,-5.34
2023-02-09T20:55:53.824Z,-5.37
2023-02-09T20:58:21.357Z,-5.38
2023-02-09T21:00:48.317Z,-5.09
2023-02-09T21:03:16.458Z,-5.17
2023-02-09T21:05:42.929Z,-5.59
2023-02-09T21:08:10.417Z,-5.54
2023-02-09T21:10:38.619Z,-5.56
2023-02-09T21:13:06.778Z,-5.38
2023-02-09T21:15:33.871Z,-5.40
2023-02-09T21:18:00.295Z,-5.21
2023-02-09T21:20:27.066Z,-5.66
2023-02-09T21:22:53.534Z,-5.54
2023-02-09T21:25:20.044Z,-5.61
2023-02-09T21:27:46.617Z,-5.94
2023-02-09T21:30:13.637Z,-5.83
2023-02-09T21:32:40.087Z,-5.89
2023-02-09T21:35:10.051Z,-5.94
2023-02-09T21:37:38.555Z,-5.76
2023-02-09T21:40:06.672Z,-5.72
2023-02-09T21:42:33.374Z,-5.93
2023-02-09T21:44:59.891Z,-6.13
2023-02-09T21:47:28.482Z,-5.83
2023-02-09T21:49:57.214Z,-6.05
2023-02-09T21:52:24.148Z,-6.06
2023-02-09T21:54:50.974Z,-6.21
2023-02-09T21:57:17.856Z,-5.99
2023-02-09T21:59:44.250Z,-6.10
2023-02-09T22:02:16.347Z,-6.11
2023-02-09T22:04:44.981Z,-6.07
2023-02-09T22:07:11.922Z,-6.15
2023-02-09T22:09:38.605Z,-6.03
2023-02-09T22:12:05.767Z,-6.09
2023-02-09T22:14:33.081Z,-6.17
2023-02-09T22:16:59.711Z,-6.13
2023-02-09T22:19:26.381Z,-6.31
2023-02-09T22:21:52.831Z,-6.37
2023-02-09T22:24:19.357Z,-6.21
2023-02-09T22:26:46.922Z,-6.26
2023-02-09T22:29:15.193Z,-6.10
2023-02-09T22:31:42.984Z,-6.05
2023-02-09T22:34:10.511Z,-6.30
2023-02-09T22:36:37.471Z,-6.13
2023-02-09T22:39:05.693Z,-6.13
2023-02-09T22:41:32.752Z,-5.97
2023-02-09T22:44:12.403Z,-6.29
2023-02-09T22:46:40.928Z,-6.23
2023-02-09T22:49:17.473Z,-6.17
2023-02-09T22:51:45.138Z,-6.44
2023-02-09T22:54:17.400Z,-6.39
2023-02-09T22:56:44.003Z,-6.24
2023-02-09T22:59:11.791Z,-6.44
2023-02-09T23:01:38.571Z,-6.49
2023-02-09T23:04:05.106Z,-6.39
2023-02-09T23:06:31.633Z,-6.48
2023-02-09T23:09:00.491Z,-6.32
2023-02-09T23:11:28.775Z,-6.36
2023-02-09T23:14:09.197Z,-6.52
2023-02-09T23:16:37.755Z,-6.74
2023-02-09T23:19:07.115Z,-6.56
2023-02-09T23:21:39.874Z,-6.52
2023-02-09T23:24:07.264Z,-6.70
2023-02-09T23:26:33.709Z,-6.55
2023-02-09T23:29:04.058Z,-6.46
2023-02-09T23:31:30.677Z,-7.04
2023-02-09T23:33:57.340Z,-6.73
2023-02-09T23:36:27.063Z,-7.38
2023-02-09T23:38:56.172Z,-6.41
2023-02-09T23:41:23.463Z,-6.46
2023-02-09T23:43:50.807Z,-6.44
2023-02-09T23:46:21.553Z,-6.38
2023-02-09T23:48:48.811Z,-6.19
2023-02-09T23:51:19.253Z,-6.42
2023-02-09T23:53:47.189Z,-6.42
2023-02-09T23:56:15.668Z,-6.41
2023-02-09T23:58:44.812Z,-6.45
